sensor_id;sensor_type;location;lat;lon;timestamp;P1;durP1;ratioP1;P2;durP2;ratioP2
4317;SDS011;2172;53.576;9.934;2023-09-07T00:00:47;10.73;;;9.67;;
4317;SDS011;2172;53.576;9.934;2023-09-07T00:03:16;8.60;;;7.90;;
4317;SDS011;2172;53.576;9.934;2023-09-07T00:05:44;9.07;;;8.00;;
4317;SDS011;2172;53.576;9.934;2023-09-07T00:08:12;9.63;;;7.77;;
4317;SDS011;2172;53.576;9.934;2023-09-07T00:10:40;8.70;;;8.00;;
4317;SDS011;2172;53.576;9.934;2023-09-07T00:13:07;13.53;;;10.17;;
4317;SDS011;2172;53.576;9.934;2023-09-07T00:15:35;9.43;;;8.47;;
4317;SDS011;2172;53.576;9.934;2023-09-07T00:18:04;9.70;;;8.37;;
4317;SDS011;2172;53.576;9.934;2023-09-07T00:20:33;11.57;;;7.90;;
4317;SDS011;2172;53.576;9.934;2023-09-07T00:23:01;9.00;;;8.10;;
4317;SDS011;2172;53.576;9.934;2023-09-07T00:25:29;8.80;;;8.07;;
4317;SDS011;2172;53.576;9.934;2023-09-07T00:27:57;8.00;;;7.33;;
4317;SDS011;2172;53.576;9.934;2023-09-07T00:30:24;9.70;;;8.03;;
4317;SDS011;2172;53.576;9.934;2023-09-07T00:32:52;9.63;;;8.63;;
4317;SDS011;2172;53.576;9.934;2023-09-07T00:35:20;10.83;;;8.87;;
4317;SDS011;2172;53.576;9.934;2023-09-07T00:37:49;10.13;;;8.83;;
4317;SDS011;2172;53.576;9.934;2023-09-07T00:40:16;8.70;;;8.00;;
4317;SDS011;2172;53.576;9.934;2023-09-07T00:42:44;8.90;;;8.20;;
4317;SDS011;2172;53.576;9.934;2023-09-07T00:45:11;9.10;;;8.30;;
4317;SDS011;2172;53.576;9.934;2023-09-07T00:47:39;9.50;;;8.70;;
4317;SDS011;2172;53.576;9.934;2023-09-07T00:50:07;10.93;;;9.90;;
4317;SDS011;2172;53.576;9.934;2023-09-07T00:52:35;9.07;;;8.27;;
4317;SDS011;2172;53.576;9.934;2023-09-07T00:55:07;9.70;;;8.80;;
4317;SDS011;2172;53.576;9.934;2023-09-07T00:57:36;9.07;;;8.27;;
4317;SDS011;2172;53.576;9.934;2023-09-07T01:00:06;9.30;;;8.50;;
4317;SDS011;2172;53.576;9.934;2023-09-07T01:02:34;10.20;;;9.20;;
4317;SDS011;2172;53.576;9.934;2023-09-07T01:05:02;10.00;;;9.10;;
4317;SDS011;2172;53.576;9.934;2023-09-07T01:07:32;10.13;;;9.27;;
4317;SDS011;2172;53.576;9.934;2023-09-07T01:10:02;10.60;;;9.50;;
4317;SDS011;2172;53.576;9.934;2023-09-07T01:12:32;10.80;;;8.73;;
4317;SDS011;2172;53.576;9.934;2023-09-07T01:14:59;9.10;;;8.30;;
4317;SDS011;2172;53.576;9.934;2023-09-07T01:17:30;8.87;;;8.07;;
4317;SDS011;2172;53.576;9.934;2023-09-07T01:19:58;9.70;;;8.90;;
4317;SDS011;2172;53.576;9.934;2023-09-07T01:22:32;10.40;;;8.60;;
4317;SDS011;2172;53.576;9.934;2023-09-07T01:25:00;8.60;;;7.90;;
4317;SDS011;2172;53.576;9.934;2023-09-07T01:27:29;9.87;;;8.87;;
4317;SDS011;2172;53.576;9.934;2023-09-07T01:29:57;9.30;;;8.40;;
4317;SDS011;2172;53.576;9.934;2023-09-07T01:32:25;13.00;;;8.93;;
4317;SDS011;2172;53.576;9.934;2023-09-07T01:34:53;9.27;;;8.30;;
4317;SDS011;2172;53.576;9.934;2023-09-07T01:37:23;12.23;;;11.03;;
4317;SDS011;2172;53.576;9.934;2023-09-07T01:39:52;10.60;;;9.70;;
4317;SDS011;2172;53.576;9.934;2023-09-07T01:42:20;9.80;;;8.90;;
4317;SDS011;2172;53.576;9.934;2023-09-07T01:44:48;8.77;;;8.03;;
4317;SDS011;2172;53.576;9.934;2023-09-07T01:47:15;9.50;;;8.70;;
4317;SDS011;2172;53.576;9.934;2023-09-07T01:49:43;11.27;;;8.83;;
4317;SDS011;2172;53.576;9.934;2023-09-07T01:52:11;10.13;;;9.13;;
4317;SDS011;2172;53.576;9.934;2023-09-07T01:54:38;10.23;;;9.37;;
4317;SDS011;2172;53.576;9.934;2023-09-07T01:57:07;9.60;;;8.70;;
4317;SDS011;2172;53.576;9.934;2023-09-07T01:59:35;11.00;;;8.60;;
4317;SDS011;2172;53.576;9.934;2023-09-07T02:02:03;8.50;;;7.70;;
4317;SDS011;2172;53.576;9.934;2023-09-07T02:04:30;9.70;;;8.80;;
4317;SDS011;2172;53.576;9.934;2023-09-07T02:06:58;9.00;;;8.20;;
4317;SDS011;2172;53.576;9.934;2023-09-07T02:09:25;8.60;;;7.80;;
4317;SDS011;2172;53.576;9.934;2023-09-07T02:11:53;9.37;;;8.57;;
4317;SDS011;2172;53.576;9.934;2023-09-07T02:14:21;9.93;;;8.83;;
4317;SDS011;2172;53.576;9.934;2023-09-07T02:16:49;8.30;;;7.70;;
4317;SDS011;2172;53.576;9.934;2023-09-07T02:19:17;8.10;;;7.40;;
4317;SDS011;2172;53.576;9.934;2023-09-07T02:21:47;9.57;;;8.77;;
4317;SDS011;2172;53.576;9.934;2023-09-07T02:24:15;9.20;;;8.30;;
4317;SDS011;2172;53.576;9.934;2023-09-07T02:26:43;8.23;;;7.43;;
4317;SDS011;2172;53.576;9.934;2023-09-07T02:29:11;8.90;;;8.10;;
4317;SDS011;2172;53.576;9.934;2023-09-07T02:31:40;9.73;;;8.87;;
4317;SDS011;2172;53.576;9.934;2023-09-07T02:34:07;8.90;;;8.07;;
4317;SDS011;2172;53.576;9.934;2023-09-07T02:36:35;9.27;;;8.37;;
4317;SDS011;2172;53.576;9.934;2023-09-07T02:39:02;8.27;;;7.67;;
4317;SDS011;2172;53.576;9.934;2023-09-07T02:41:30;8.57;;;7.87;;
4317;SDS011;2172;53.576;9.934;2023-09-07T02:43:58;8.37;;;7.67;;
4317;SDS011;2172;53.576;9.934;2023-09-07T02:46:26;9.53;;;8.73;;
4317;SDS011;2172;53.576;9.934;2023-09-07T02:48:54;9.30;;;8.50;;
4317;SDS011;2172;53.576;9.934;2023-09-07T02:51:24;8.90;;;8.00;;
4317;SDS011;2172;53.576;9.934;2023-09-07T02:53:53;12.63;;;11.43;;
4317;SDS011;2172;53.576;9.934;2023-09-07T02:56:23;10.47;;;9.57;;
4317;SDS011;2172;53.576;9.934;2023-09-07T02:58:51;11.10;;;10.10;;
4317;SDS011;2172;53.576;9.934;2023-09-07T03:01:18;10.83;;;9.67;;
4317;SDS011;2172;53.576;9.934;2023-09-07T03:03:46;10.30;;;9.40;;
4317;SDS011;2172;53.576;9.934;2023-09-07T03:06:17;9.47;;;8.57;;
4317;SDS011;2172;53.576;9.934;2023-09-07T03:09:03;9.07;;;8.27;;
4317;SDS011;2172;53.576;9.934;2023-09-07T03:11:36;8.50;;;7.70;;
4317;SDS011;2172;53.576;9.934;2023-09-07T03:14:04;9.13;;;8.20;;
4317;SDS011;2172;53.576;9.934;2023-09-07T03:16:32;9.87;;;8.70;;
4317;SDS011;2172;53.576;9.934;2023-09-07T03:19:00;8.90;;;8.10;;
4317;SDS011;2172;53.576;9.934;2023-09-07T03:21:29;9.10;;;8.20;;
4317;SDS011;2172;53.576;9.934;2023-09-07T03:23:57;8.90;;;8.10;;
4317;SDS011;2172;53.576;9.934;2023-09-07T03:26:25;10.60;;;9.70;;
4317;SDS011;2172;53.576;9.934;2023-09-07T03:28:53;9.30;;;8.40;;
4317;SDS011;2172;53.576;9.934;2023-09-07T03:31:20;9.67;;;8.90;;
4317;SDS011;2172;53.576;9.934;2023-09-07T03:33:48;10.23;;;9.43;;
4317;SDS011;2172;53.576;9.934;2023-09-07T03:36:17;10.77;;;9.57;;
4317;SDS011;2172;53.576;9.934;2023-09-07T03:38:46;9.63;;;8.83;;
4317;SDS011;2172;53.576;9.934;2023-09-07T03:41:14;10.57;;;9.60;;
4317;SDS011;2172;53.576;9.934;2023-09-07T03:43:42;11.43;;;10.50;;
4317;SDS011;2172;53.576;9.934;2023-09-07T03:46:10;11.90;;;9.70;;
4317;SDS011;2172;53.576;9.934;2023-09-07T03:48:38;9.23;;;8.43;;
4317;SDS011;2172;53.576;9.934;2023-09-07T03:51:05;9.60;;;8.80;;
4317;SDS011;2172;53.576;9.934;2023-09-07T03:53:53;11.30;;;10.30;;
4317;SDS011;2172;53.576;9.934;2023-09-07T03:56:20;10.27;;;9.27;;
4317;SDS011;2172;53.576;9.934;2023-09-07T03:58:49;9.57;;;8.80;;
4317;SDS011;2172;53.576;9.934;2023-09-07T04:01:16;10.93;;;9.47;;
4317;SDS011;2172;53.576;9.934;2023-09-07T04:03:44;9.20;;;8.50;;
4317;SDS011;2172;53.576;9.934;2023-09-07T04:06:11;10.13;;;9.20;;
4317;SDS011;2172;53.576;9.934;2023-09-07T04:08:39;10.77;;;9.77;;
4317;SDS011;2172;53.576;9.934;2023-09-07T04:11:07;11.70;;;10.13;;
4317;SDS011;2172;53.576;9.934;2023-09-07T04:13:35;11.47;;;10.47;;
4317;SDS011;2172;53.576;9.934;2023-09-07T04:16:03;10.57;;;9.67;;
4317;SDS011;2172;53.576;9.934;2023-09-07T04:18:30;14.43;;;10.50;;
4317;SDS011;2172;53.576;9.934;2023-09-07T04:21:04;10.70;;;9.80;;
4317;SDS011;2172;53.576;9.934;2023-09-07T04:23:32;10.83;;;9.80;;
4317;SDS011;2172;53.576;9.934;2023-09-07T04:26:05;11.20;;;9.80;;
4317;SDS011;2172;53.576;9.934;2023-09-07T04:28:35;11.43;;;10.33;;
4317;SDS011;2172;53.576;9.934;2023-09-07T04:31:03;11.03;;;10.13;;
4317;SDS011;2172;53.576;9.934;2023-09-07T04:33:31;11.50;;;10.40;;
4317;SDS011;2172;53.576;9.934;2023-09-07T04:36:06;13.80;;;10.37;;
4317;SDS011;2172;53.576;9.934;2023-09-07T04:38:35;10.97;;;10.07;;
4317;SDS011;2172;53.576;9.934;2023-09-07T04:41:08;12.53;;;9.97;;
4317;SDS011;2172;53.576;9.934;2023-09-07T04:43:37;11.90;;;10.80;;
4317;SDS011;2172;53.576;9.934;2023-09-07T04:46:08;11.57;;;10.57;;
4317;SDS011;2172;53.576;9.934;2023-09-07T04:48:35;11.90;;;10.53;;
4317;SDS011;2172;53.576;9.934;2023-09-07T04:51:04;10.30;;;9.40;;
4317;SDS011;2172;53.576;9.934;2023-09-07T04:53:33;10.83;;;9.07;;
4317;SDS011;2172;53.576;9.934;2023-09-07T04:56:05;10.83;;;9.80;;
4317;SDS011;2172;53.576;9.934;2023-09-07T04:58:34;11.60;;;10.50;;
4317;SDS011;2172;53.576;9.934;2023-09-07T05:01:02;16.13;;;10.10;;
4317;SDS011;2172;53.576;9.934;2023-09-07T05:03:30;11.10;;;10.10;;
4317;SDS011;2172;53.576;9.934;2023-09-07T05:05:58;11.80;;;10.60;;
4317;SDS011;2172;53.576;9.934;2023-09-07T05:08:26;11.60;;;10.40;;
4317;SDS011;2172;53.576;9.934;2023-09-07T05:10:54;11.00;;;10.00;;
4317;SDS011;2172;53.576;9.934;2023-09-07T05:13:24;11.10;;;10.10;;
4317;SDS011;2172;53.576;9.934;2023-09-07T05:15:53;10.83;;;9.73;;
4317;SDS011;2172;53.576;9.934;2023-09-07T05:18:21;12.03;;;10.30;;
4317;SDS011;2172;53.576;9.934;2023-09-07T05:20:49;11.37;;;10.40;;
4317;SDS011;2172;53.576;9.934;2023-09-07T05:23:18;10.73;;;9.83;;
4317;SDS011;2172;53.576;9.934;2023-09-07T05:25:46;12.33;;;10.90;;
4317;SDS011;2172;53.576;9.934;2023-09-07T05:28:15;11.07;;;10.07;;
4317;SDS011;2172;53.576;9.934;2023-09-07T05:30:44;10.70;;;9.60;;
4317;SDS011;2172;53.576;9.934;2023-09-07T05:33:13;12.07;;;10.97;;
4317;SDS011;2172;53.576;9.934;2023-09-07T05:35:42;11.40;;;10.30;;
4317;SDS011;2172;53.576;9.934;2023-09-07T05:38:11;11.20;;;10.20;;
4317;SDS011;2172;53.576;9.934;2023-09-07T05:40:39;11.23;;;10.23;;
4317;SDS011;2172;53.576;9.934;2023-09-07T05:43:08;11.10;;;10.10;;
4317;SDS011;2172;53.576;9.934;2023-09-07T05:45:36;11.00;;;10.00;;
4317;SDS011;2172;53.576;9.934;2023-09-07T05:48:08;12.37;;;11.13;;
4317;SDS011;2172;53.576;9.934;2023-09-07T05:50:36;13.13;;;10.80;;
4317;SDS011;2172;53.576;9.934;2023-09-07T05:53:05;10.80;;;9.70;;
4317;SDS011;2172;53.576;9.934;2023-09-07T05:55:33;10.87;;;9.97;;
4317;SDS011;2172;53.576;9.934;2023-09-07T05:58:04;10.27;;;9.23;;
4317;SDS011;2172;53.576;9.934;2023-09-07T06:00:34;11.20;;;10.23;;
4317;SDS011;2172;53.576;9.934;2023-09-07T06:03:05;11.00;;;9.90;;
4317;SDS011;2172;53.576;9.934;2023-09-07T06:05:34;11.17;;;10.07;;
4317;SDS011;2172;53.576;9.934;2023-09-07T06:08:04;11.40;;;9.93;;
4317;SDS011;2172;53.576;9.934;2023-09-07T06:10:34;11.93;;;10.83;;
4317;SDS011;2172;53.576;9.934;2023-09-07T06:13:03;11.47;;;10.37;;
4317;SDS011;2172;53.576;9.934;2023-09-07T06:15:31;11.53;;;10.47;;
4317;SDS011;2172;53.576;9.934;2023-09-07T06:17:59;11.17;;;10.17;;
4317;SDS011;2172;53.576;9.934;2023-09-07T06:20:26;11.57;;;10.33;;
4317;SDS011;2172;53.576;9.934;2023-09-07T06:22:57;12.33;;;11.13;;
4317;SDS011;2172;53.576;9.934;2023-09-07T06:25:27;13.30;;;9.70;;
4317;SDS011;2172;53.576;9.934;2023-09-07T06:27:56;11.33;;;10.10;;
4317;SDS011;2172;53.576;9.934;2023-09-07T06:30:23;11.33;;;10.03;;
4317;SDS011;2172;53.576;9.934;2023-09-07T06:32:51;14.60;;;10.23;;
4317;SDS011;2172;53.576;9.934;2023-09-07T06:35:18;17.03;;;11.10;;
4317;SDS011;2172;53.576;9.934;2023-09-07T06:37:46;12.40;;;9.83;;
4317;SDS011;2172;53.576;9.934;2023-09-07T06:40:19;11.00;;;10.00;;
4317;SDS011;2172;53.576;9.934;2023-09-07T06:42:50;10.87;;;9.73;;
4317;SDS011;2172;53.576;9.934;2023-09-07T06:45:20;11.57;;;10.33;;
4317;SDS011;2172;53.576;9.934;2023-09-07T06:47:49;10.60;;;9.70;;
4317;SDS011;2172;53.576;9.934;2023-09-07T06:50:20;10.60;;;9.50;;
4317;SDS011;2172;53.576;9.934;2023-09-07T06:52:48;10.40;;;9.30;;
4317;SDS011;2172;53.576;9.934;2023-09-07T06:55:16;12.00;;;10.80;;
4317;SDS011;2172;53.576;9.934;2023-09-07T06:57:46;11.97;;;9.40;;
4317;SDS011;2172;53.576;9.934;2023-09-07T07:00:14;10.17;;;9.17;;
4317;SDS011;2172;53.576;9.934;2023-09-07T07:02:42;9.80;;;8.80;;
4317;SDS011;2172;53.576;9.934;2023-09-07T07:05:10;10.93;;;9.80;;
4317;SDS011;2172;53.576;9.934;2023-09-07T07:07:39;10.07;;;9.10;;
4317;SDS011;2172;53.576;9.934;2023-09-07T07:10:07;13.00;;;9.50;;
4317;SDS011;2172;53.576;9.934;2023-09-07T07:12:37;10.40;;;9.30;;
4317;SDS011;2172;53.576;9.934;2023-09-07T07:15:05;10.73;;;9.60;;
4317;SDS011;2172;53.576;9.934;2023-09-07T07:17:34;11.03;;;9.80;;
4317;SDS011;2172;53.576;9.934;2023-09-07T07:20:01;10.23;;;9.20;;
4317;SDS011;2172;53.576;9.934;2023-09-07T07:22:29;9.90;;;9.00;;
4317;SDS011;2172;53.576;9.934;2023-09-07T07:25:00;10.50;;;9.70;;
4317;SDS011;2172;53.576;9.934;2023-09-07T07:27:31;9.50;;;8.70;;
4317;SDS011;2172;53.576;9.934;2023-09-07T07:30:00;9.87;;;8.77;;
4317;SDS011;2172;53.576;9.934;2023-09-07T07:32:28;10.50;;;9.40;;
4317;SDS011;2172;53.576;9.934;2023-09-07T07:34:56;10.43;;;9.40;;
4317;SDS011;2172;53.576;9.934;2023-09-07T07:37:24;9.13;;;8.30;;
4317;SDS011;2172;53.576;9.934;2023-09-07T07:39:52;9.73;;;8.80;;
4317;SDS011;2172;53.576;9.934;2023-09-07T07:42:21;10.13;;;8.67;;
4317;SDS011;2172;53.576;9.934;2023-09-07T07:44:50;11.63;;;8.87;;
4317;SDS011;2172;53.576;9.934;2023-09-07T07:47:19;11.57;;;9.33;;
4317;SDS011;2172;53.576;9.934;2023-09-07T07:49:47;9.70;;;8.13;;
4317;SDS011;2172;53.576;9.934;2023-09-07T07:52:14;9.70;;;8.70;;
4317;SDS011;2172;53.576;9.934;2023-09-07T07:54:42;11.73;;;8.47;;
4317;SDS011;2172;53.576;9.934;2023-09-07T07:57:09;9.03;;;8.33;;
4317;SDS011;2172;53.576;9.934;2023-09-07T07:59:37;12.83;;;8.67;;
4317;SDS011;2172;53.576;9.934;2023-09-07T08:02:05;10.73;;;8.03;;
4317;SDS011;2172;53.576;9.934;2023-09-07T08:04:34;8.47;;;7.77;;
4317;SDS011;2172;53.576;9.934;2023-09-07T08:07:03;10.50;;;8.80;;
4317;SDS011;2172;53.576;9.934;2023-09-07T08:09:33;8.77;;;8.07;;
4317;SDS011;2172;53.576;9.934;2023-09-07T08:12:01;8.30;;;7.50;;
4317;SDS011;2172;53.576;9.934;2023-09-07T08:14:30;8.73;;;8.00;;
4317;SDS011;2172;53.576;9.934;2023-09-07T08:16:58;8.87;;;7.33;;
4317;SDS011;2172;53.576;9.934;2023-09-07T08:19:27;8.77;;;7.87;;
4317;SDS011;2172;53.576;9.934;2023-09-07T08:21:57;9.30;;;8.20;;
4317;SDS011;2172;53.576;9.934;2023-09-07T08:24:24;9.70;;;8.10;;
4317;SDS011;2172;53.576;9.934;2023-09-07T08:26:52;8.87;;;7.77;;
4317;SDS011;2172;53.576;9.934;2023-09-07T08:29:21;9.07;;;8.20;;
4317;SDS011;2172;53.576;9.934;2023-09-07T08:31:51;8.60;;;7.90;;
4317;SDS011;2172;53.576;9.934;2023-09-07T08:34:19;8.43;;;7.73;;
4317;SDS011;2172;53.576;9.934;2023-09-07T08:36:48;8.20;;;7.40;;
4317;SDS011;2172;53.576;9.934;2023-09-07T08:39:20;10.87;;;8.30;;
4317;SDS011;2172;53.576;9.934;2023-09-07T08:41:48;11.93;;;8.83;;
4317;SDS011;2172;53.576;9.934;2023-09-07T08:44:16;8.67;;;7.83;;
4317;SDS011;2172;53.576;9.934;2023-09-07T08:46:44;8.53;;;7.83;;
4317;SDS011;2172;53.576;9.934;2023-09-07T08:49:12;9.03;;;8.20;;
4317;SDS011;2172;53.576;9.934;2023-09-07T08:51:39;10.73;;;7.97;;
4317;SDS011;2172;53.576;9.934;2023-09-07T08:54:07;12.20;;;8.60;;
4317;SDS011;2172;53.576;9.934;2023-09-07T08:56:36;8.07;;;7.43;;
4317;SDS011;2172;53.576;9.934;2023-09-07T08:59:04;9.13;;;8.27;;
4317;SDS011;2172;53.576;9.934;2023-09-07T09:01:32;14.33;;;8.97;;
4317;SDS011;2172;53.576;9.934;2023-09-07T09:04:00;9.53;;;8.07;;
4317;SDS011;2172;53.576;9.934;2023-09-07T09:06:27;9.00;;;8.20;;
4317;SDS011;2172;53.576;9.934;2023-09-07T09:08:55;9.57;;;7.70;;
4317;SDS011;2172;53.576;9.934;2023-09-07T09:11:24;9.30;;;8.50;;
4317;SDS011;2172;53.576;9.934;2023-09-07T09:13:54;8.90;;;8.00;;
4317;SDS011;2172;53.576;9.934;2023-09-07T09:16:21;9.97;;;8.87;;
4317;SDS011;2172;53.576;9.934;2023-09-07T09:18:49;8.20;;;7.40;;
4317;SDS011;2172;53.576;9.934;2023-09-07T09:21:18;9.07;;;7.80;;
4317;SDS011;2172;53.576;9.934;2023-09-07T09:23:47;12.40;;;8.07;;
4317;SDS011;2172;53.576;9.934;2023-09-07T09:26:16;9.43;;;8.20;;
4317;SDS011;2172;53.576;9.934;2023-09-07T09:28:43;9.10;;;8.20;;
4317;SDS011;2172;53.576;9.934;2023-09-07T09:31:13;9.20;;;7.37;;
4317;SDS011;2172;53.576;9.934;2023-09-07T09:33:41;8.57;;;7.77;;
4317;SDS011;2172;53.576;9.934;2023-09-07T09:36:13;7.43;;;6.80;;
4317;SDS011;2172;53.576;9.934;2023-09-07T09:38:46;10.27;;;7.53;;
4317;SDS011;2172;53.576;9.934;2023-09-07T09:41:16;8.00;;;7.30;;
4317;SDS011;2172;53.576;9.934;2023-09-07T09:43:44;8.90;;;8.10;;
4317;SDS011;2172;53.576;9.934;2023-09-07T09:46:15;8.50;;;7.70;;
4317;SDS011;2172;53.576;9.934;2023-09-07T09:48:44;9.10;;;7.10;;
4317;SDS011;2172;53.576;9.934;2023-09-07T09:51:12;8.67;;;7.87;;
4317;SDS011;2172;53.576;9.934;2023-09-07T09:53:40;7.60;;;7.00;;
4317;SDS011;2172;53.576;9.934;2023-09-07T09:56:09;9.97;;;7.10;;
4317;SDS011;2172;53.576;9.934;2023-09-07T09:58:37;7.80;;;7.10;;
4317;SDS011;2172;53.576;9.934;2023-09-07T10:01:04;6.77;;;6.27;;
4317;SDS011;2172;53.576;9.934;2023-09-07T10:03:36;8.10;;;7.47;;
4317;SDS011;2172;53.576;9.934;2023-09-07T10:06:11;7.30;;;6.53;;
4317;SDS011;2172;53.576;9.934;2023-09-07T10:08:50;7.40;;;6.80;;
4317;SDS011;2172;53.576;9.934;2023-09-07T10:11:26;7.63;;;6.60;;
4317;SDS011;2172;53.576;9.934;2023-09-07T10:13:59;6.97;;;6.37;;
4317;SDS011;2172;53.576;9.934;2023-09-07T10:16:28;7.07;;;6.47;;
4317;SDS011;2172;53.576;9.934;2023-09-07T10:19:14;11.00;;;6.60;;
4317;SDS011;2172;53.576;9.934;2023-09-07T10:21:43;8.33;;;6.00;;
4317;SDS011;2172;53.576;9.934;2023-09-07T10:24:10;6.17;;;5.47;;
4317;SDS011;2172;53.576;9.934;2023-09-07T10:26:38;7.63;;;6.77;;
4317;SDS011;2172;53.576;9.934;2023-09-07T10:29:05;7.00;;;6.07;;
4317;SDS011;2172;53.576;9.934;2023-09-07T10:31:33;6.63;;;5.67;;
4317;SDS011;2172;53.576;9.934;2023-09-07T10:34:08;6.30;;;5.77;;
4317;SDS011;2172;53.576;9.934;2023-09-07T10:36:38;6.00;;;5.50;;
4317;SDS011;2172;53.576;9.934;2023-09-07T10:39:06;6.87;;;6.27;;
4317;SDS011;2172;53.576;9.934;2023-09-07T10:41:40;8.27;;;6.17;;
4317;SDS011;2172;53.576;9.934;2023-09-07T10:44:08;8.27;;;6.33;;
4317;SDS011;2172;53.576;9.934;2023-09-07T10:46:37;7.60;;;6.90;;
4317;SDS011;2172;53.576;9.934;2023-09-07T10:49:06;7.70;;;6.33;;
4317;SDS011;2172;53.576;9.934;2023-09-07T10:51:43;7.43;;;6.33;;
4317;SDS011;2172;53.576;9.934;2023-09-07T10:54:15;7.23;;;6.50;;
4317;SDS011;2172;53.576;9.934;2023-09-07T10:56:44;7.30;;;6.60;;
4317;SDS011;2172;53.576;9.934;2023-09-07T10:59:12;6.67;;;6.17;;
4317;SDS011;2172;53.576;9.934;2023-09-07T11:01:40;7.63;;;6.93;;
4317;SDS011;2172;53.576;9.934;2023-09-07T11:04:07;6.50;;;5.90;;
4317;SDS011;2172;53.576;9.934;2023-09-07T11:06:36;6.47;;;5.97;;
4317;SDS011;2172;53.576;9.934;2023-09-07T11:09:06;6.57;;;5.97;;
4317;SDS011;2172;53.576;9.934;2023-09-07T11:11:35;7.83;;;5.90;;
4317;SDS011;2172;53.576;9.934;2023-09-07T11:14:03;5.70;;;5.30;;
4317;SDS011;2172;53.576;9.934;2023-09-07T11:16:33;6.50;;;5.90;;
4317;SDS011;2172;53.576;9.934;2023-09-07T11:19:03;10.40;;;5.90;;
4317;SDS011;2172;53.576;9.934;2023-09-07T11:21:31;6.30;;;5.70;;
4317;SDS011;2172;53.576;9.934;2023-09-07T11:24:01;7.53;;;6.33;;
4317;SDS011;2172;53.576;9.934;2023-09-07T11:26:41;6.07;;;5.47;;
4317;SDS011;2172;53.576;9.934;2023-09-07T11:29:09;6.40;;;5.80;;
4317;SDS011;2172;53.576;9.934;2023-09-07T11:31:39;7.40;;;6.00;;
4317;SDS011;2172;53.576;9.934;2023-09-07T11:34:08;6.43;;;5.83;;
4317;SDS011;2172;53.576;9.934;2023-09-07T11:36:36;8.33;;;6.23;;
4317;SDS011;2172;53.576;9.934;2023-09-07T11:39:05;5.73;;;5.17;;
4317;SDS011;2172;53.576;9.934;2023-09-07T11:41:37;6.90;;;5.90;;
4317;SDS011;2172;53.576;9.934;2023-09-07T11:44:07;6.23;;;5.80;;
4317;SDS011;2172;53.576;9.934;2023-09-07T11:46:35;6.53;;;6.03;;
4317;SDS011;2172;53.576;9.934;2023-09-07T11:49:03;5.70;;;5.20;;
4317;SDS011;2172;53.576;9.934;2023-09-07T11:51:31;7.07;;;5.57;;
4317;SDS011;2172;53.576;9.934;2023-09-07T11:53:58;7.77;;;5.93;;
4317;SDS011;2172;53.576;9.934;2023-09-07T11:56:27;7.63;;;5.90;;
4317;SDS011;2172;53.576;9.934;2023-09-07T11:58:55;8.63;;;5.97;;
4317;SDS011;2172;53.576;9.934;2023-09-07T12:01:25;6.50;;;5.90;;
4317;SDS011;2172;53.576;9.934;2023-09-07T12:03:52;6.07;;;5.57;;
4317;SDS011;2172;53.576;9.934;2023-09-07T12:06:20;9.77;;;6.37;;
4317;SDS011;2172;53.576;9.934;2023-09-07T12:08:57;6.73;;;6.10;;
4317;SDS011;2172;53.576;9.934;2023-09-07T12:11:25;7.03;;;6.07;;
4317;SDS011;2172;53.576;9.934;2023-09-07T12:13:53;6.50;;;5.77;;
4317;SDS011;2172;53.576;9.934;2023-09-07T12:16:20;6.50;;;6.00;;
4317;SDS011;2172;53.576;9.934;2023-09-07T12:18:49;6.77;;;6.27;;
4317;SDS011;2172;53.576;9.934;2023-09-07T12:21:17;7.47;;;6.70;;
4317;SDS011;2172;53.576;9.934;2023-09-07T12:23:45;6.43;;;5.93;;
4317;SDS011;2172;53.576;9.934;2023-09-07T12:26:13;6.80;;;6.10;;
4317;SDS011;2172;53.576;9.934;2023-09-07T12:28:42;7.07;;;6.40;;
4317;SDS011;2172;53.576;9.934;2023-09-07T12:31:09;7.97;;;6.70;;
4317;SDS011;2172;53.576;9.934;2023-09-07T12:33:37;6.33;;;5.70;;
4317;SDS011;2172;53.576;9.934;2023-09-07T12:36:06;6.10;;;5.60;;
4317;SDS011;2172;53.576;9.934;2023-09-07T12:38:35;7.57;;;6.23;;
4317;SDS011;2172;53.576;9.934;2023-09-07T12:41:03;6.87;;;6.17;;
4317;SDS011;2172;53.576;9.934;2023-09-07T12:43:30;8.57;;;6.80;;
4317;SDS011;2172;53.576;9.934;2023-09-07T12:45:58;8.07;;;7.27;;
4317;SDS011;2172;53.576;9.934;2023-09-07T12:48:26;8.53;;;6.20;;
4317;SDS011;2172;53.576;9.934;2023-09-07T12:50:54;6.30;;;5.80;;
4317;SDS011;2172;53.576;9.934;2023-09-07T12:53:23;5.87;;;5.40;;
4317;SDS011;2172;53.576;9.934;2023-09-07T12:56:08;6.37;;;5.80;;
4317;SDS011;2172;53.576;9.934;2023-09-07T12:58:35;8.07;;;7.27;;
4317;SDS011;2172;53.576;9.934;2023-09-07T13:01:03;8.50;;;5.33;;
4317;SDS011;2172;53.576;9.934;2023-09-07T13:03:33;6.10;;;5.50;;
4317;SDS011;2172;53.576;9.934;2023-09-07T13:06:01;5.40;;;4.90;;
4317;SDS011;2172;53.576;9.934;2023-09-07T13:08:30;6.00;;;5.40;;
4317;SDS011;2172;53.576;9.934;2023-09-07T13:10:58;6.57;;;5.43;;
4317;SDS011;2172;53.576;9.934;2023-09-07T13:13:26;6.23;;;5.63;;
4317;SDS011;2172;53.576;9.934;2023-09-07T13:15:54;6.43;;;5.80;;
4317;SDS011;2172;53.576;9.934;2023-09-07T13:18:22;6.20;;;5.67;;
4317;SDS011;2172;53.576;9.934;2023-09-07T13:20:50;7.13;;;5.60;;
4317;SDS011;2172;53.576;9.934;2023-09-07T13:23:20;8.67;;;5.80;;
4317;SDS011;2172;53.576;9.934;2023-09-07T13:25:49;6.30;;;5.80;;
4317;SDS011;2172;53.576;9.934;2023-09-07T13:28:17;6.40;;;5.50;;
4317;SDS011;2172;53.576;9.934;2023-09-07T13:30:44;6.30;;;5.70;;
4317;SDS011;2172;53.576;9.934;2023-09-07T13:33:12;6.63;;;5.97;;
4317;SDS011;2172;53.576;9.934;2023-09-07T13:35:39;6.60;;;5.90;;
4317;SDS011;2172;53.576;9.934;2023-09-07T13:38:07;9.30;;;6.10;;
4317;SDS011;2172;53.576;9.934;2023-09-07T13:40:34;6.23;;;5.73;;
4317;SDS011;2172;53.576;9.934;2023-09-07T13:43:03;6.50;;;5.90;;
4317;SDS011;2172;53.576;9.934;2023-09-07T13:45:31;5.33;;;4.83;;
4317;SDS011;2172;53.576;9.934;2023-09-07T13:47:58;5.93;;;5.43;;
4317;SDS011;2172;53.576;9.934;2023-09-07T13:50:27;6.73;;;5.90;;
4317;SDS011;2172;53.576;9.934;2023-09-07T13:52:55;6.30;;;5.53;;
4317;SDS011;2172;53.576;9.934;2023-09-07T13:55:23;7.10;;;5.77;;
4317;SDS011;2172;53.576;9.934;2023-09-07T13:57:51;6.27;;;5.67;;
4317;SDS011;2172;53.576;9.934;2023-09-07T14:00:19;6.30;;;5.70;;
4317;SDS011;2172;53.576;9.934;2023-09-07T14:02:47;7.07;;;5.77;;
4317;SDS011;2172;53.576;9.934;2023-09-07T14:05:15;5.60;;;5.20;;
4317;SDS011;2172;53.576;9.934;2023-09-07T14:07:43;7.33;;;5.60;;
4317;SDS011;2172;53.576;9.934;2023-09-07T14:10:10;7.10;;;5.40;;
4317;SDS011;2172;53.576;9.934;2023-09-07T14:12:38;5.43;;;4.93;;
4317;SDS011;2172;53.576;9.934;2023-09-07T14:15:05;6.67;;;5.50;;
4317;SDS011;2172;53.576;9.934;2023-09-07T14:17:35;5.90;;;5.33;;
4317;SDS011;2172;53.576;9.934;2023-09-07T14:20:02;5.77;;;5.20;;
4317;SDS011;2172;53.576;9.934;2023-09-07T14:22:32;7.07;;;5.43;;
4317;SDS011;2172;53.576;9.934;2023-09-07T14:24:59;6.40;;;5.90;;
4317;SDS011;2172;53.576;9.934;2023-09-07T14:27:28;6.13;;;5.53;;
4317;SDS011;2172;53.576;9.934;2023-09-07T14:29:55;6.50;;;5.70;;
4317;SDS011;2172;53.576;9.934;2023-09-07T14:32:23;7.10;;;6.50;;
4317;SDS011;2172;53.576;9.934;2023-09-07T14:34:51;6.70;;;5.53;;
4317;SDS011;2172;53.576;9.934;2023-09-07T14:37:19;8.10;;;5.20;;
4317;SDS011;2172;53.576;9.934;2023-09-07T14:39:46;6.00;;;5.40;;
4317;SDS011;2172;53.576;9.934;2023-09-07T14:42:16;6.67;;;5.57;;
4317;SDS011;2172;53.576;9.934;2023-09-07T14:44:44;6.37;;;5.37;;
4317;SDS011;2172;53.576;9.934;2023-09-07T14:47:12;6.60;;;4.97;;
4317;SDS011;2172;53.576;9.934;2023-09-07T14:49:40;5.37;;;4.87;;
4317;SDS011;2172;53.576;9.934;2023-09-07T14:52:09;6.30;;;5.23;;
4317;SDS011;2172;53.576;9.934;2023-09-07T14:54:36;6.70;;;4.87;;
4317;SDS011;2172;53.576;9.934;2023-09-07T14:57:05;5.33;;;4.80;;
4317;SDS011;2172;53.576;9.934;2023-09-07T14:59:33;6.93;;;5.27;;
4317;SDS011;2172;53.576;9.934;2023-09-07T15:02:00;5.40;;;5.00;;
4317;SDS011;2172;53.576;9.934;2023-09-07T15:04:28;8.23;;;5.50;;
4317;SDS011;2172;53.576;9.934;2023-09-07T15:06:56;8.27;;;4.90;;
4317;SDS011;2172;53.576;9.934;2023-09-07T15:09:24;5.70;;;5.17;;
4317;SDS011;2172;53.576;9.934;2023-09-07T15:11:52;8.00;;;5.50;;
4317;SDS011;2172;53.576;9.934;2023-09-07T15:14:19;5.97;;;5.47;;
4317;SDS011;2172;53.576;9.934;2023-09-07T15:16:47;6.70;;;5.20;;